createdAt,value
2018-12-03T00:01:32.523Z,0.40
2018-12-03T00:04:06.716Z,0.40
2018-12-03T00:06:35.290Z,0.40
2018-12-03T00:09:06.993Z,0.40
2018-12-03T00:11:36.465Z,0.37
2018-12-03T00:14:05.661Z,0.37
2018-12-03T00:16:34.669Z,0.30
2018-12-03T00:19:03.699Z,0.50
2018-12-03T00:21:33.031Z,0.50
2018-12-03T00:24:02.150Z,0.53
2018-12-03T00:26:31.297Z,0.33
2018-12-03T00:29:00.301Z,0.40
2018-12-03T00:31:29.067Z,0.50
2018-12-03T00:33:58.234Z,0.30
2018-12-03T00:36:26.890Z,0.30
2018-12-03T00:38:55.448Z,0.33
2018-12-03T00:41:24.021Z,0.50
2018-12-03T00:43:52.814Z,0.30
2018-12-03T00:46:21.396Z,0.47
2018-12-03T00:48:50.284Z,0.37
2018-12-03T00:51:19.194Z,0.37
2018-12-03T00:53:48.180Z,0.30
2018-12-03T00:56:17.171Z,0.33
2018-12-03T00:58:46.215Z,0.37
2018-12-03T01:01:14.891Z,0.50
2018-12-03T01:03:43.824Z,0.40
2018-12-03T01:06:12.555Z,0.40
2018-12-03T01:08:41.522Z,0.23
2018-12-03T01:11:10.649Z,0.30
2018-12-03T01:13:40.323Z,0.40
2018-12-03T01:16:09.312Z,0.30
2018-12-03T01:18:38.581Z,0.30
2018-12-03T01:21:07.580Z,0.30
2018-12-03T01:23:36.524Z,0.30
2018-12-03T01:26:06.261Z,0.30
2018-12-03T01:28:35.296Z,0.30
2018-12-03T01:31:03.984Z,0.20
2018-12-03T01:33:32.558Z,0.27
2018-12-03T01:36:01.660Z,0.30
2018-12-03T01:38:30.770Z,0.40
2018-12-03T01:40:59.481Z,0.23
2018-12-03T01:43:28.033Z,0.30
2018-12-03T01:45:56.646Z,0.17
2018-12-03T01:48:25.950Z,0.10
2018-12-03T01:50:54.591Z,0.20
2018-12-03T01:53:23.490Z,0.40
2018-12-03T01:55:52.617Z,0.20
2018-12-03T01:58:21.501Z,0.20
2018-12-03T02:00:50.732Z,0.30
2018-12-03T02:03:19.374Z,0.20
2018-12-03T02:05:48.008Z,0.20
2018-12-03T02:08:16.961Z,0.30
2018-12-03T02:10:46.002Z,0.40
2018-12-03T02:13:14.663Z,0.30
2018-12-03T02:15:43.500Z,0.20
2018-12-03T02:18:12.080Z,0.20
2018-12-03T02:20:40.623Z,0.10
2018-12-03T02:23:09.536Z,0.30
2018-12-03T02:25:38.191Z,0.30
2018-12-03T02:28:06.943Z,0.20
2018-12-03T02:30:35.872Z,0.40
2018-12-03T02:33:04.832Z,0.20
2018-12-03T02:35:33.721Z,0.20
2018-12-03T02:38:03.009Z,0.10
2018-12-03T02:40:32.212Z,0.20
2018-12-03T02:43:00.940Z,0.20
2018-12-03T02:45:29.524Z,0.20
2018-12-03T02:47:58.433Z,0.20
2018-12-03T02:50:27.556Z,0.20
2018-12-03T02:52:56.604Z,0.27
2018-12-03T02:55:25.553Z,0.20
2018-12-03T02:57:54.202Z,0.20
2018-12-03T03:00:23.169Z,0.20
2018-12-03T03:02:51.811Z,0.33
2018-12-03T03:05:20.764Z,0.23
2018-12-03T03:07:49.452Z,0.40
2018-12-03T03:10:18.007Z,0.20
2018-12-03T03:12:47.039Z,0.20
2018-12-03T03:15:16.107Z,0.30
2018-12-03T03:17:44.997Z,0.20
2018-12-03T03:20:14.645Z,0.23
2018-12-03T03:22:43.314Z,0.20
2018-12-03T03:25:12.433Z,0.20
2018-12-03T03:27:41.094Z,0.30
2018-12-03T03:30:13.024Z,0.30
2018-12-03T03:32:42.032Z,0.27
2018-12-03T03:35:12.229Z,0.30
2018-12-03T03:37:41.554Z,0.30
2018-12-03T03:40:11.131Z,0.20
2018-12-03T03:42:40.256Z,0.20
2018-12-03T03:45:13.852Z,0.23
2018-12-03T03:47:43.131Z,0.20
2018-12-03T03:50:11.788Z,0.20
2018-12-03T03:52:40.676Z,0.23
2018-12-03T03:55:10.592Z,0.30
2018-12-03T03:57:39.576Z,0.20
2018-12-03T04:00:10.876Z,0.33
2018-12-03T04:02:39.472Z,0.23
2018-12-03T04:05:10.427Z,0.40
2018-12-03T04:07:40.227Z,0.20
2018-12-03T04:10:10.456Z,0.37
2018-12-03T04:12:39.849Z,0.20
2018-12-03T04:15:10.124Z,0.30
2018-12-03T04:17:39.110Z,0.40
2018-12-03T04:20:11.402Z,0.33
2018-12-03T04:22:40.024Z,0.20
2018-12-03T04:25:10.260Z,0.30
2018-12-03T04:27:39.205Z,0.40
2018-12-03T04:30:13.576Z,0.20
2018-12-03T04:32:42.953Z,0.30
2018-12-03T04:35:12.497Z,0.20
2018-12-03T04:37:41.886Z,0.87
2018-12-03T04:40:11.208Z,0.30
2018-12-03T04:42:39.758Z,0.30
2018-12-03T04:45:09.953Z,0.40
2018-12-03T04:47:38.848Z,0.30
2018-12-03T04:50:08.847Z,0.30
2018-12-03T04:52:37.738Z,0.47
2018-12-03T04:55:06.564Z,0.10
2018-12-03T04:57:35.488Z,0.30
2018-12-03T05:00:07.888Z,0.40
2018-12-03T05:02:36.829Z,0.40
2018-12-03T05:05:06.390Z,0.20
2018-12-03T05:07:35.427Z,0.37
2018-12-03T05:10:07.649Z,0.30
2018-12-03T05:12:36.313Z,0.30
2018-12-03T05:15:07.281Z,0.37
2018-12-03T05:17:36.236Z,0.20
2018-12-03T05:20:06.238Z,0.40
2018-12-03T05:22:35.119Z,0.30
2018-12-03T05:25:04.132Z,0.50
2018-12-03T05:27:32.717Z,0.50
2018-12-03T05:30:01.931Z,0.27
2018-12-03T05:32:30.609Z,0.27
2018-12-03T05:35:00.015Z,0.30
2018-12-03T05:37:28.949Z,0.33
2018-12-03T05:39:57.918Z,0.40
2018-12-03T05:42:26.894Z,0.30
2018-12-03T05:44:55.857Z,0.30
2018-12-03T05:47:24.869Z,0.30
2018-12-03T05:49:53.892Z,0.50
2018-12-03T05:52:23.215Z,0.33
2018-12-03T05:54:52.071Z,0.20
2018-12-03T05:57:21.027Z,0.10
2018-12-03T05:59:49.675Z,0.30
2018-12-03T06:02:18.550Z,0.30
2018-12-03T06:04:47.517Z,0.20
2018-12-03T06:07:16.476Z,0.33
2018-12-03T06:09:46.037Z,0.30
2018-12-03T06:12:15.290Z,0.30
2018-12-03T06:14:44.319Z,0.30
2018-12-03T06:17:12.968Z,0.50
2018-12-03T06:19:41.856Z,0.50
2018-12-03T06:22:10.819Z,0.53
2018-12-03T06:24:39.460Z,0.40
2018-12-03T06:27:08.402Z,0.40
2018-12-03T06:29:37.064Z,0.57
2018-12-03T06:32:06.588Z,0.33
2018-12-03T06:34:35.217Z,0.50
2018-12-03T06:37:04.465Z,0.50
2018-12-03T06:39:33.490Z,0.60
2018-12-03T06:42:02.745Z,0.40
2018-12-03T06:44:31.703Z,0.43
2018-12-03T06:47:00.775Z,0.50
2018-12-03T06:49:29.729Z,0.60
2018-12-03T06:51:59.083Z,0.40
2018-12-03T06:54:28.071Z,0.60
2018-12-03T06:56:57.067Z,0.50
2018-12-03T06:59:26.004Z,0.50
2018-12-03T07:01:55.016Z,0.30
2018-12-03T07:04:24.041Z,0.50
2018-12-03T07:06:53.004Z,0.40
2018-12-03T07:09:22.440Z,0.40
2018-12-03T07:11:51.405Z,0.47
2018-12-03T07:14:20.428Z,0.40
2018-12-03T07:16:49.412Z,0.43
2018-12-03T07:19:18.087Z,0.30
2018-12-03T07:21:47.110Z,0.50
2018-12-03T07:24:16.162Z,0.30
2018-12-03T07:26:44.824Z,0.30
2018-12-03T07:29:13.420Z,0.40
2018-12-03T07:31:42.329Z,0.40
2018-12-03T07:34:11.596Z,0.80
2018-12-03T07:36:40.605Z,0.90
2018-12-03T07:39:09.246Z,0.50
2018-12-03T07:41:38.146Z,0.60
2018-12-03T07:44:07.108Z,0.50
2018-12-03T07:46:35.762Z,0.40
2018-12-03T07:49:05.706Z,0.40
2018-12-03T07:51:34.408Z,0.23
2018-12-03T07:54:03.312Z,0.20
2018-12-03T07:56:32.328Z,0.27
2018-12-03T07:59:01.573Z,0.70
2018-12-03T08:01:30.247Z,0.47
2018-12-03T08:03:58.799Z,0.40
2018-12-03T08:06:27.736Z,0.30
2018-12-03T08:08:57.229Z,0.33
2018-12-03T08:11:25.877Z,0.50
2018-12-03T08:13:54.477Z,0.53
2018-12-03T08:16:23.350Z,0.40
2018-12-03T08:18:52.325Z,0.43
2018-12-03T08:21:21.249Z,0.57
2018-12-03T08:23:57.740Z,0.50
2018-12-03T08:26:26.371Z,0.37
2018-12-03T08:28:55.280Z,0.60
2018-12-03T08:31:24.238Z,0.50
2018-12-03T08:33:53.597Z,0.70
2018-12-03T08:36:22.874Z,0.40
2018-12-03T08:38:51.509Z,0.30
2018-12-03T08:41:20.777Z,0.40
2018-12-03T08:43:49.419Z,0.60
2018-12-03T08:46:18.316Z,0.50
2018-12-03T08:48:47.301Z,0.50
2018-12-03T08:51:16.288Z,0.30
2018-12-03T08:53:47.417Z,0.50
2018-12-03T08:56:16.426Z,0.50
2018-12-03T08:58:45.432Z,0.50
2018-12-03T09:01:17.363Z,0.50
2018-12-03T09:03:51.585Z,0.50
2018-12-03T09:06:20.232Z,0.70
2018-12-03T09:08:55.865Z,0.70
2018-12-03T09:11:25.349Z,0.70
2018-12-03T09:13:54.573Z,0.40
2018-12-03T09:16:24.402Z,0.60
2018-12-03T09:18:53.744Z,0.50
2018-12-03T09:21:22.719Z,0.53
2018-12-03T09:23:53.069Z,0.60
2018-12-03T09:26:22.075Z,0.40
2018-12-03T09:28:50.732Z,0.33
2018-12-03T09:31:21.448Z,0.50
2018-12-03T09:33:52.241Z,0.63
2018-12-03T09:36:20.888Z,0.60
2018-12-03T09:38:57.898Z,0.70
2018-12-03T09:41:26.869Z,0.30
2018-12-03T09:43:55.552Z,0.50
2018-12-03T09:46:24.821Z,0.47
2018-12-03T09:48:58.361Z,0.50
2018-12-03T09:51:30.586Z,0.40
2018-12-03T09:53:59.991Z,0.20
2018-12-03T09:56:34.167Z,0.53
2018-12-03T09:59:06.654Z,0.60
2018-12-03T10:01:35.563Z,0.60
2018-12-03T10:04:07.336Z,0.73
2018-12-03T10:06:36.385Z,0.67
2018-12-03T10:09:09.484Z,0.67
2018-12-03T10:11:38.549Z,0.70
2018-12-03T10:14:07.708Z,0.40
2018-12-03T10:16:40.686Z,0.63
2018-12-03T10:19:09.750Z,0.30
2018-12-03T10:21:39.221Z,0.40
2018-12-03T10:24:12.870Z,0.40
2018-12-03T10:26:41.909Z,0.60
2018-12-03T10:29:14.066Z,0.50
2018-12-03T10:31:43.060Z,0.40
2018-12-03T10:34:15.415Z,0.43
2018-12-03T10:36:52.550Z,0.33
2018-12-03T10:39:28.263Z,0.33
2018-12-03T10:42:08.689Z,0.50
2018-12-03T10:44:37.718Z,0.70
2018-12-03T10:47:07.556Z,0.50
2018-12-03T10:49:36.553Z,0.27
2018-12-03T10:52:06.160Z,0.40
2018-12-03T10:54:36.736Z,0.40
2018-12-03T10:57:07.386Z,0.30
2018-12-03T10:59:36.411Z,0.47
2018-12-03T11:02:11.189Z,0.50
2018-12-03T11:04:43.212Z,0.40
2018-12-03T11:07:12.664Z,0.50
2018-12-03T11:09:41.622Z,0.40
2018-12-03T11:12:10.612Z,0.50
2018-12-03T11:14:39.652Z,0.33
2018-12-03T11:17:08.496Z,0.40
2018-12-03T11:19:37.417Z,0.50
2018-12-03T11:22:06.840Z,0.30
2018-12-03T11:24:36.198Z,0.60
2018-12-03T11:27:05.300Z,0.40
2018-12-03T11:29:39.797Z,0.73
2018-12-03T11:32:08.858Z,0.30
2018-12-03T11:34:38.221Z,0.50
2018-12-03T11:37:13.985Z,0.47
2018-12-03T11:39:52.320Z,0.40
2018-12-03T11:42:21.748Z,0.50
2018-12-03T11:44:51.076Z,0.43
2018-12-03T11:47:20.229Z,0.47
2018-12-03T11:49:49.242Z,0.40
2018-12-03T11:52:18.260Z,0.40
2018-12-03T11:54:47.219Z,0.40
2018-12-03T11:57:16.192Z,0.60
2018-12-03T11:59:45.213Z,0.50
2018-12-03T12:02:14.278Z,0.40
2018-12-03T12:04:43.244Z,0.33
2018-12-03T12:07:12.295Z,0.47
2018-12-03T12:09:41.299Z,0.57
2018-12-03T12:12:10.335Z,0.37
2018-12-03T12:14:39.622Z,0.50
2018-12-03T12:17:08.325Z,0.50
2018-12-03T12:19:37.337Z,0.40
2018-12-03T12:22:06.865Z,0.47
2018-12-03T12:24:36.400Z,0.30
2018-12-03T12:27:05.386Z,0.30
2018-12-03T12:29:34.336Z,0.50
2018-12-03T12:32:03.371Z,0.53
2018-12-03T12:34:32.343Z,0.70
2018-12-03T12:37:01.358Z,0.90
2018-12-03T12:39:30.333Z,0.70
2018-12-03T12:41:59.344Z,0.40
2018-12-03T12:44:28.321Z,0.60
2018-12-03T12:46:57.360Z,0.70
2018-12-03T12:49:26.402Z,0.40
2018-12-03T12:51:55.420Z,0.50
2018-12-03T12:54:24.747Z,0.53
2018-12-03T12:56:53.758Z,0.50
2018-12-03T12:59:22.499Z,0.50
2018-12-03T13:01:51.647Z,0.50
2018-12-03T13:04:20.667Z,0.50
2018-12-03T13:06:49.672Z,0.50
2018-12-03T13:09:18.657Z,0.50
2018-12-03T13:11:47.333Z,0.57
2018-12-03T13:14:16.280Z,0.60
2018-12-03T13:16:45.373Z,0.53
2018-12-03T13:19:14.361Z,0.83
2018-12-03T13:21:43.378Z,0.40
2018-12-03T13:24:12.377Z,0.60
2018-12-03T13:26:42.934Z,0.43
2018-12-03T13:29:11.986Z,0.70
2018-12-03T13:31:40.665Z,0.57
2018-12-03T13:34:09.664Z,0.50
2018-12-03T13:36:38.328Z,0.50
2018-12-03T13:39:09.664Z,0.63
2018-12-03T13:41:38.674Z,0.63
2018-12-03T13:44:08.731Z,0.73
2018-12-03T13:46:37.373Z,0.70
2018-12-03T13:49:06.501Z,0.70
2018-12-03T13:51:36.049Z,0.80
2018-12-03T13:54:04.559Z,0.60
2018-12-03T13:56:34.312Z,0.57
2018-12-03T13:59:02.975Z,0.60
2018-12-03T14:01:31.874Z,0.57
2018-12-03T14:04:06.207Z,0.63
2018-12-03T14:06:42.970Z,0.60
2018-12-03T14:09:26.881Z,0.80
2018-12-03T14:12:16.487Z,0.60
2018-12-03T14:16:04.387Z,0.47
2018-12-03T14:18:37.419Z,0.60
2018-12-03T14:21:12.435Z,0.60
2018-12-03T14:23:41.858Z,0.50
2018-12-03T14:26:11.169Z,0.47
2018-12-03T14:28:40.264Z,0.67
2018-12-03T14:31:09.372Z,0.47
2018-12-03T14:33:38.392Z,0.50
2018-12-03T14:36:07.664Z,0.73
2018-12-03T14:38:36.700Z,0.40
2018-12-03T14:41:05.985Z,0.57
2018-12-03T14:43:34.990Z,0.60
2018-12-03T14:46:03.639Z,0.70
2018-12-03T14:48:32.680Z,0.90
2018-12-03T14:51:04.861Z,0.80
2018-12-03T14:53:33.877Z,0.80
2018-12-03T14:56:02.941Z,0.60
2018-12-03T14:58:32.918Z,0.70
2018-12-03T15:01:07.882Z,0.77
2018-12-03T15:03:37.352Z,0.70
2018-12-03T15:06:06.367Z,0.80
2018-12-03T15:08:35.373Z,1.00
2018-12-03T15:11:04.428Z,0.73
2018-12-03T15:13:33.516Z,0.53
2018-12-03T15:16:03.521Z,0.63
2018-12-03T15:19:19.005Z,0.67
2018-12-03T15:21:47.973Z,0.70
2018-12-03T15:24:17.848Z,0.97
2018-12-03T15:26:47.032Z,0.70
2018-12-03T15:29:16.252Z,0.83
2018-12-03T15:31:46.794Z,0.67
2018-12-03T15:34:16.748Z,1.07
2018-12-03T15:36:45.976Z,0.70
2018-12-03T15:39:15.553Z,0.70
2018-12-03T15:41:44.548Z,0.70
2018-12-03T15:44:13.687Z,0.70
2018-12-03T15:46:43.928Z,0.67
2018-12-03T15:49:13.781Z,0.67
2018-12-03T15:51:42.781Z,0.70
2018-12-03T15:54:14.450Z,0.50
2018-12-03T15:56:43.569Z,0.50
2018-12-03T15:59:13.508Z,0.97
2018-12-03T16:01:42.544Z,0.70
2018-12-03T16:04:12.105Z,0.60
2018-12-03T16:06:40.969Z,0.87
2018-12-03T16:09:11.853Z,0.70
2018-12-03T16:11:41.191Z,0.70
2018-12-03T16:14:10.409Z,0.70
2018-12-03T16:16:39.164Z,0.63
2018-12-03T16:19:08.052Z,0.70
2018-12-03T16:21:37.009Z,0.80
2018-12-03T16:24:06.694Z,0.90
2018-12-03T16:26:35.696Z,0.50
2018-12-03T16:29:04.704Z,0.67
2018-12-03T16:31:33.674Z,0.70
2018-12-03T16:34:02.717Z,0.60
2018-12-03T16:36:31.799Z,1.30
2018-12-03T16:39:00.796Z,0.90
2018-12-03T16:41:30.330Z,0.67
2018-12-03T16:44:00.004Z,0.70
2018-12-03T16:46:29.024Z,1.00
2018-12-03T16:48:58.029Z,1.43
2018-12-03T16:51:27.072Z,0.73
2018-12-03T16:53:56.054Z,0.83
2018-12-03T16:56:24.727Z,0.67
2018-12-03T16:58:53.614Z,0.80
2018-12-03T17:01:22.284Z,0.50
2018-12-03T17:03:51.003Z,0.83
2018-12-03T17:06:19.974Z,0.80
2018-12-03T17:08:49.037Z,0.77
2018-12-03T17:11:17.728Z,0.90
2018-12-03T17:13:46.681Z,1.03
2018-12-03T17:16:15.788Z,0.80
2018-12-03T17:18:45.018Z,1.27
2018-12-03T17:21:24.195Z,0.97
2018-12-03T17:24:03.174Z,1.00
2018-12-03T17:26:32.208Z,1.27
2018-12-03T17:29:01.396Z,0.90
2018-12-03T17:31:30.511Z,1.20
2018-12-03T17:33:59.649Z,0.83
2018-12-03T17:36:28.934Z,0.93
2018-12-03T17:38:58.065Z,0.90
2018-12-03T17:41:26.947Z,0.83
2018-12-03T17:43:55.859Z,0.80
2018-12-03T17:46:24.546Z,0.67
2018-12-03T17:48:53.469Z,0.90
2018-12-03T17:51:22.724Z,0.67
2018-12-03T17:53:51.323Z,0.80
2018-12-03T17:56:20.271Z,0.80
2018-12-03T17:58:49.572Z,1.00
2018-12-03T18:01:18.211Z,0.70
2018-12-03T18:03:47.578Z,1.00
2018-12-03T18:06:17.124Z,0.97
2018-12-03T18:08:46.488Z,0.77
2018-12-03T18:11:15.268Z,0.90
2018-12-03T18:13:43.831Z,0.90
2018-12-03T18:16:12.671Z,0.90
2018-12-03T18:18:41.580Z,1.10
2018-12-03T18:21:10.624Z,0.87
2018-12-03T18:23:39.723Z,0.90
2018-12-03T18:26:08.765Z,1.03
2018-12-03T18:28:38.020Z,1.10
2018-12-03T18:31:06.820Z,0.90
2018-12-03T18:33:35.732Z,1.10
2018-12-03T18:36:04.779Z,0.80
2018-12-03T18:38:33.893Z,1.00
2018-12-03T18:41:03.473Z,1.00
2018-12-03T18:43:32.824Z,1.20
2018-12-03T18:46:01.918Z,0.70
2018-12-03T18:48:31.041Z,0.70
2018-12-03T18:51:00.268Z,0.73
2018-12-03T18:53:30.381Z,0.80
2018-12-03T18:55:59.124Z,0.90
2018-12-03T18:58:33.890Z,0.60
2018-12-03T19:01:03.660Z,0.73
2018-12-03T19:03:32.697Z,0.80
2018-12-03T19:06:02.168Z,0.80
2018-12-03T19:08:31.557Z,0.90
2018-12-03T19:11:00.575Z,1.30
2018-12-03T19:13:29.606Z,0.73
2018-12-03T19:15:58.627Z,0.77
2018-12-03T19:18:27.368Z,0.90
2018-12-03T19:20:55.999Z,0.80
2018-12-03T19:23:24.636Z,1.00
2018-12-03T19:25:53.594Z,0.90
2018-12-03T19:28:22.682Z,0.70
2018-12-03T19:30:51.729Z,0.93
2018-12-03T19:33:21.060Z,0.80
2018-12-03T19:35:49.882Z,0.90
2018-12-03T19:38:18.448Z,0.80
2018-12-03T19:40:47.380Z,1.00
2018-12-03T19:43:16.419Z,0.97
2018-12-03T19:45:46.229Z,0.70
2018-12-03T19:48:14.908Z,0.80
2018-12-03T19:50:43.869Z,0.93
2018-12-03T19:53:13.177Z,0.40
2018-12-03T19:55:41.915Z,0.60
2018-12-03T19:58:27.272Z,0.60
2018-12-03T20:00:56.669Z,0.70
2018-12-03T20:03:25.638Z,0.60
2018-12-03T20:05:54.340Z,0.50
2018-12-03T20:08:22.973Z,0.60
2018-12-03T20:10:52.241Z,0.50
2018-12-03T20:13:21.359Z,0.80
2018-12-03T20:15:50.413Z,0.60
2018-12-03T20:18:19.400Z,0.80
2018-12-03T20:21:26.336Z,0.53
2018-12-03T20:23:59.725Z,0.63
2018-12-03T20:26:37.004Z,0.73
2018-12-03T20:29:11.397Z,0.40
2018-12-03T20:31:51.573Z,0.60
2018-12-03T20:34:34.087Z,0.60
2018-12-03T20:37:28.044Z,0.50
2018-12-03T20:42:13.733Z,0.60
2018-12-03T20:44:48.868Z,0.70
2018-12-03T20:47:21.551Z,0.80
2018-12-03T20:50:31.106Z,0.87
2018-12-03T20:52:59.819Z,0.80
2018-12-03T20:55:35.064Z,0.60
2018-12-03T20:58:04.208Z,0.77
2018-12-03T21:00:33.260Z,0.73
2018-12-03T21:03:03.277Z,0.70
2018-12-03T21:05:32.326Z,0.77
2018-12-03T21:08:01.360Z,0.80
2018-12-03T21:10:30.795Z,0.60
2018-12-03T21:12:59.696Z,0.80
2018-12-03T21:15:34.269Z,0.63
2018-12-03T21:18:03.204Z,0.60
2018-12-03T21:20:45.053Z,0.50
2018-12-03T21:23:14.092Z,0.60
2018-12-03T21:25:42.885Z,0.60
2018-12-03T21:28:12.160Z,0.60
2018-12-03T21:30:40.823Z,0.57
2018-12-03T21:33:09.882Z,0.57
2018-12-03T21:35:39.476Z,0.60
2018-12-03T21:38:08.487Z,0.40
2018-12-03T21:40:37.624Z,0.43
2018-12-03T21:43:06.730Z,0.70
2018-12-03T21:45:35.845Z,0.67
2018-12-03T21:48:04.889Z,0.50
2018-12-03T21:50:33.905Z,0.40
2018-12-03T21:53:05.406Z,0.47
2018-12-03T21:55:34.384Z,0.40
2018-12-03T21:58:04.342Z,0.60
2018-12-03T22:00:33.307Z,0.43
2018-12-03T22:03:02.339Z,0.60
2018-12-03T22:05:31.092Z,0.53
2018-12-03T22:08:00.829Z,0.37
2018-12-03T22:10:30.284Z,0.50
2018-12-03T22:12:59.373Z,0.40
2018-12-03T22:15:28.370Z,0.70
2018-12-03T22:17:57.155Z,0.50
2018-12-03T22:20:26.048Z,0.50
2018-12-03T22:22:55.348Z,0.43
2018-12-03T22:25:24.348Z,0.50
2018-12-03T22:27:53.045Z,0.60
2018-12-03T22:30:23.195Z,0.80
2018-12-03T22:32:52.405Z,0.50
2018-12-03T22:35:21.406Z,0.37
2018-12-03T22:37:50.484Z,0.50
2018-12-03T22:40:19.459Z,0.63
2018-12-03T22:42:48.469Z,0.50
2018-12-03T22:45:17.140Z,0.60
2018-12-03T22:47:46.152Z,0.80
2018-12-03T22:50:15.248Z,0.47
2018-12-03T22:52:44.299Z,0.40
2018-12-03T22:55:13.317Z,0.60
2018-12-03T22:57:42.345Z,0.60
2018-12-03T23:00:20.277Z,0.50
2018-12-03T23:02:49.293Z,0.63
2018-12-03T23:05:18.333Z,0.50
2018-12-03T23:07:47.350Z,0.50
2018-12-03T23:10:16.745Z,0.37
2018-12-03T23:12:46.132Z,0.37
2018-12-03T23:15:15.844Z,0.50
2018-12-03T23:17:45.047Z,0.33
2018-12-03T23:20:14.113Z,0.43
2018-12-03T23:22:43.130Z,0.40
2018-12-03T23:25:12.102Z,0.50
2018-12-03T23:27:41.114Z,0.40
2018-12-03T23:30:10.293Z,0.53
2018-12-03T23:32:42.508Z,0.50
2018-12-03T23:35:11.880Z,0.50
2018-12-03T23:37:40.877Z,0.47
2018-12-03T23:40:09.970Z,0.37
2018-12-03T23:42:38.959Z,0.50
2018-12-03T23:45:08.142Z,0.40
2018-12-03T23:47:37.848Z,0.50
2018-12-03T23:50:07.122Z,0.20
2018-12-03T23:52:36.128Z,0.50
2018-12-03T23:55:05.314Z,0.47
2018-12-03T23:57:34.303Z,0.60
